Agadir Al Massira, Morocco
Current Conditions -  °F | °C
As of 3:00 AM on Saturday 22 Nov 2014 (Local Time) from GMAD Reporting Station
Light Rain Light Rain  
Wind Chill: 66°   Ceiling: 10000
Heat Index: 66°   Visibility: 4mi
Dew Point: 59°   Wind: 8mph
Humidity: 78%   Direction: 110°ESE
Pressure: 29.71"   Gusts: NA
Location:  30.33°N, 9.4°W
Report Text: GMAD 220200Z 11007KT 080V140 6000 -RA SCT020 FEW026CB BKN10019/15 Q1006 NOSIG
Loading
Personal Weather Stations






























Interactive Weather Map New forecast layout! Learn more

10-Day Weather Forecast

Advertisements
Track Severe Weather on mobile